Time;durP1;ratioP1;P1;durP2;ratioP2;P2;SDS_P1;SDS_P2;PMS_P1;PMS_P2;Temp;Humidity;BMP_temperature;BMP_pressure;BME280_temperature;BME280_humidity;BME280_pressure;Samples;Min_cycle;Max_cycle;Signal;HPM_P1;HPM_P2
2022/05/06 00:04:47;;;;;;;;;;;;;;;;;;;;;
2022/05/06 00:20:28;;;;;;;9.00;4.63;;;;;;;9.39;81.05;101350.66;5922214;24;20024;-76
2022/05/06 00:23:38;;;;;;;;;;;;;;;;;;;;;
2022/05/06 00:26:18;;;;;;;;;;;;;;;;;;;;;
2022/05/06 01:25:16;;;;;;;7.22;4.78;;;;;;;8.57;85.68;101395.69;6238448;23;20072;-74
2022/05/06 01:28:25;;;;;;;7.20;4.32;;;;;;;8.33;86.80;101359.25;6221025;23;20012;-74
2022/05/06 01:31:14;;;;;;;;;;;;;;;;;;;;;
2022/05/06 01:34:25;;;;;;;9.27;5.93;;;;;;;8.58;86.99;101399.25;6249144;23;20040;-74
2022/05/06 01:37:28;;;;;;;7.35;4.70;;;;;;;8.65;86.87;101400.00;6219304;23;20423;-74
2022/05/06 01:40:05;;;;;;;15.93;7.57;;;;;;;8.71;86.53;101374.53;6221076;23;20004;-74
2022/05/06 01:42:38;;;;;;;12.00;6.82;;;;;;;8.98;86.62;101387.78;6221061;23;19996;-74
2022/05/06 01:45:25;;;;;;;9.43;6.00;;;;;;;9.10;85.98;101388.69;6196126;23;20339;-73
2022/05/06 01:48:22;;;;;;;;;;;;;;;;;;;;;
2022/05/06 01:51:30;;;;;;;11.30;6.53;;;;;;;9.26;85.33;101385.28;6243895;23;20062;-75
2022/05/06 01:54:11;;;;;;;;;;;;;;;;;;;;;
2022/05/06 01:56:47;;;;;;;;;;;;;;;;;;;;;
2022/05/06 01:59:57;;;;;;;14.85;8.15;;;;;;;9.32;85.97;101371.78;6245368;23;20092;-73
2022/05/06 02:13:29;;;;;;;8.48;6.68;;;;;;;9.71;85.45;101359.34;6204085;23;20016;-73
2022/05/06 02:15:58;;;;;;;10.25;7.10;;;;;;;10.08;85.33;101408.28;6198577;23;20012;-73
2022/05/06 02:19:08;;;;;;;;;;;;;;;;;;;;;
2022/05/06 02:22:18;;;;;;;;;;;;;;;;;;;;;
2022/05/06 02:28:55;;;;;;;;;;;;;;;;;;;;;
2022/05/06 02:35:33;;;;;;;13.07;7.82;;;;;;;10.35;84.53;101405.03;6157524;23;20020;-76
2022/05/06 02:38:00;;;;;;;9.25;6.22;;;;;;;10.22;84.25;101392.47;6132429;23;20098;-75
2022/05/06 02:40:28;;;;;;;10.18;7.00;;;;;;;10.39;84.02;101413.63;6133325;23;20046;-76
2022/05/06 02:43:35;;;;;;;12.77;7.07;;;;;;;10.46;84.45;101419.78;6158898;23;20006;-75
2022/05/06 02:46:25;;;;;;;11.20;7.00;;;;;;;10.42;84.12;101422.16;6158164;23;20010;-74
2022/05/06 02:49:03;;;;;;;;;;;;;;;;;;;;;
2022/05/06 02:51:29;;;;;;;11.93;8.02;;;;;;;10.20;84.35;101389.13;6136417;23;20033;-75
2022/05/06 02:54:21;;;;;;;;;;;;;;;;;;;;;
2022/05/06 02:56:49;;;;;;;9.73;7.32;;;;;;;10.31;84.43;101398.38;6236530;23;20423;-75
2022/05/06 02:59:58;;;;;;;12.27;6.40;;;;;;;10.49;84.33;101411.09;6225236;23;20034;-77
2022/05/06 03:02:35;;;;;;;10.15;6.35;;;;;;;10.39;84.10;101386.28;6234323;23;20004;-77
2022/05/06 03:05:19;;;;;;;16.10;7.88;;;;;;;10.54;83.99;101411.22;6224599;23;20060;-76
2022/05/06 03:07:45;;;;;;;9.65;7.18;;;;;;;10.25;83.82;101363.78;6224536;23;20011;-75
2022/05/06 03:10:14;;;;;;;13.98;7.05;;;;;;;10.31;83.79;101384.72;6225075;23;19996;-75
2022/05/06 03:12:47;;;;;;;9.57;6.55;;;;;;;10.25;84.25;101389.25;6223322;23;20015;-77
2022/05/06 03:15:26;;;;;;;9.68;5.60;;;;;;;10.39;84.23;101403.50;6225428;23;20024;-76
2022/05/06 03:18:07;;;;;;;;;;;;;;;;;;;;;
2022/05/06 03:21:09;;;;;;;;;;;;;;;;;;;;;
2022/05/06 03:24:00;;;;;;;10.13;7.05;;;;;;;10.31;83.73;101382.81;6209688;22;20048;-76
2022/05/06 03:26:47;;;;;;;;;;;;;;;;;;;;;
2022/05/06 03:29:44;;;;;;;13.50;6.72;;;;;;;10.21;83.98;101358.00;6229842;23;20043;-75
2022/05/06 03:32:35;;;;;;;8.57;6.25;;;;;;;10.38;84.25;101384.59;6209797;23;20004;-77
2022/05/06 03:35:32;;;;;;;;;;;;;;;;;;;;;
2022/05/06 03:38:00;;;;;;;8.73;6.10;;;;;;;10.35;83.62;101387.81;6252096;23;20054;-77
2022/05/06 03:40:34;;;;;;;8.88;6.28;;;;;;;10.04;83.94;101343.41;6225219;23;20004;-77
2022/05/06 03:53:18;;;;;;;;;;;;;;;10.09;84.01;101382.59;6105243;23;20061;-78
2022/05/06 03:56:29;;;;;;;;;;;;;;;;;;;;;
2022/05/06 03:59:36;;;;;;;;;;;;;;;;;;;;;
2022/05/06 04:05:58;;;;;;;8.95;4.78;;;;;;;10.01;84.28;101390.34;5960725;24;20024;-77
2022/05/06 04:08:29;;;;;;;12.27;6.30;;;;;;;9.81;83.72;101358.72;5959183;24;20128;-77
2022/05/06 04:11:34;;;;;;;5.47;4.38;;;;;;;9.93;83.76;101386.06;6131113;23;20016;-77
2022/05/06 04:15:00;;;;;;;;;;;;;;;;;;;;;
2022/05/06 04:25:18;;;;;;;;;;;;;;;;;;;;;
2022/05/06 04:28:25;;;;;;;6.88;4.38;;;;;;;9.43;84.53;101357.28;5825416;24;20037;-79
2022/05/06 04:32:18;;;;;;;7.82;4.80;;;;;;;9.59;85.10;101394.84;5895553;24;20037;-79
2022/05/06 04:34:30;;;;;;;9.20;4.57;;;;;;;9.38;85.37;101362.66;5928856;24;20013;-76
2022/05/06 04:37:29;;;;;;;;;;;;;;;;;;;;;
2022/05/06 04:48:16;;;;;;;;;;;;;;;;;;;;;
2022/05/06 05:30:35;;;;;;;7.03;4.78;;;;;;;10.23;82.08;101426.91;6210296;22;20085;-74
2022/05/06 05:56:05;;;;;;;7.60;3.63;;;;;;;11.05;77.40;101413.28;6157379;23;20101;-75
2022/05/06 05:58:52;;;;;;;;;;;;;;;;;;;;;
2022/05/06 06:01:24;;;;;;;4.63;3.92;;;;;;;11.30;77.87;101424.72;6157424;23;20029;-74
2022/05/06 06:04:16;;;;;;;7.28;4.55;;;;;;;11.53;77.02;101431.13;6105654;23;20017;-74
2022/05/06 06:06:48;;;;;;;6.50;4.13;;;;;;;11.58;77.04;101414.78;6186842;22;20023;-74
2022/05/06 06:09:32;;;;;;;9.73;4.50;;;;;;;11.66;75.22;101439.00;6250500;22;20057;-73
2022/05/06 06:11:57;;;;;;;6.68;4.30;;;;;;;11.69;75.44;101433.03;6248465;22;20011;-71
2022/05/06 06:14:32;;;;;;;5.97;4.35;;;;;;;11.64;75.25;101434.88;6250491;22;20015;-71
2022/05/06 06:17:14;;;;;;;;;;;;;;;;;;;;;
2022/05/06 06:20:57;;;;;;;;;;;;;;;;;;;;;
2022/05/06 06:23:44;;;;;;;8.50;5.82;;;;;;;11.42;75.45;101443.81;6195225;22;20050;-75
2022/05/06 06:41:20;;;;;;;7.30;4.57;;;;;;;13.54;69.93;101466.75;6098493;23;20098;-73
2022/05/06 06:50:58;;;;;;;;;;;;;;;;;;;;;
2022/05/06 07:34:18;;;;;;;6.72;3.60;;;;;;;13.56;65.90;101437.06;6069925;23;20082;-74
2022/05/06 07:51:18;;;;;;;8.02;3.30;;;;;;;13.31;67.04;101427.47;6155981;23;20030;-74
2022/05/06 08:17:50;;;;;;;6.88;3.50;;;;;;;14.37;64.30;101416.75;6129259;23;20487;-78
2022/05/06 08:20:22;;;;;;;6.18;3.28;;;;;;;14.37;63.89;101408.50;6100494;23;20001;-74
2022/05/06 08:22:48;;;;;;;6.22;3.40;;;;;;;14.33;64.38;101401.88;6099070;23;20002;-74
2022/05/06 08:25:17;;;;;;;5.50;2.83;;;;;;;14.56;64.36;101406.09;6122517;23;20019;-73
2022/05/06 08:27:51;;;;;;;6.47;3.17;;;;;;;14.67;62.96;101373.97;6245208;23;20011;-75
2022/05/06 08:30:19;;;;;;;3.78;2.67;;;;;;;14.79;62.47;101390.22;6221708;23;20327;-73
2022/05/06 08:32:47;;;;;;;5.47;2.63;;;;;;;14.89;62.17;101386.69;6247057;23;20000;-72
2022/05/06 08:35:16;;;;;;;4.88;3.10;;;;;;;15.02;61.52;101391.66;6249061;23;20096;-74
2022/05/06 08:37:45;;;;;;;6.30;3.17;;;;;;;15.18;61.34;101411.81;6219462;23;19996;-74
2022/05/06 08:40:21;;;;;;;3.67;2.63;;;;;;;15.50;61.36;101406.03;6221372;23;20648;-74
2022/05/06 08:43:09;;;;;;;8.55;2.55;;;;;;;15.93;60.52;101410.47;6218818;23;20000;-74
2022/05/06 08:51:08;;;;;;;5.20;2.33;;;;;;;16.48;58.06;101408.66;6280540;22;20018;-74
2022/05/06 08:53:48;;;;;;;;;;;;;;;;;;;;;
2022/05/06 08:56:21;;;;;;;1.70;1.60;;;;;;;17.36;56.48;101389.69;6281239;22;20015;-75
2022/05/06 08:58:54;;;;;;;7.43;2.47;;;;;;;17.51;54.25;101399.81;6281494;22;20373;-74
2022/05/06 09:01:22;;;;;;;4.10;2.60;;;;;;;17.35;53.35;101390.00;6281148;22;20002;-74
2022/05/06 09:03:57;;;;;;;6.38;2.55;;;;;;;17.21;53.20;101379.56;6253711;22;20108;-75
2022/05/06 09:06:31;;;;;;;2.25;2.00;;;;;;;17.31;53.77;101384.19;6279528;22;20003;-75
2022/05/06 09:08:58;;;;;;;6.50;2.28;;;;;;;17.81;53.45;101408.94;6249313;22;20434;-75
2022/05/06 09:14:14;;;;;;;3.42;2.15;;;;;;;17.65;53.33;101410.19;6257567;22;20066;-73
2022/05/06 09:47:15;;;;;;;1.95;1.70;;;;;;;30.39;27.31;101423.91;5974556;23;20060;-75
2022/05/06 09:50:23;;;;;;;;;;;;;;;;;;;;;
2022/05/06 09:56:36;;;;;;;3.80;1.60;;;;;;;31.20;22.82;101415.41;6027099;23;20017;-75
2022/05/06 09:59:31;;;;;;;2.67;1.70;;;;;;;31.16;23.06;101415.34;6174985;22;20011;-72
2022/05/06 10:02:09;;;;;;;2.17;1.63;;;;;;;31.08;22.97;101403.16;6226099;22;19999;-74
2022/05/06 10:08:53;;;;;;;;;;;;;;;;;;;;;
2022/05/06 10:23:07;;;;;;;2.42;1.30;;;;;;;39.94;15.34;101413.72;6098913;23;20033;-74
2022/05/06 10:25:55;;;;;;;;;;;;;;;;;;;;;
2022/05/06 10:35:59;;;;;;;3.53;1.40;;;;;;;42.70;12.86;101412.34;6016626;23;20015;-76
2022/05/06 10:38:33;;;;;;;1.80;1.05;;;;;;;42.82;13.65;101404.13;6134463;23;20001;-78
2022/05/06 10:41:19;;;;;;;;;;;;;;;;;;;;;
2022/05/06 10:43:51;;;;;;;5.78;1.60;;;;;;;43.01;12.12;101405.06;6186988;23;20100;-74
2022/05/06 10:46:47;;;;;;;;;;;;;;;;;;;;;
2022/05/06 10:52:57;;;;;;;1.60;1.48;;;;;;;40.66;13.42;101394.69;6070059;23;20341;-73
2022/05/06 10:55:24;;;;;;;3.13;1.40;;;;;;;41.49;13.74;101403.75;6172407;23;20004;-73
2022/05/06 10:58:16;;;;;;;3.10;1.60;;;;;;;41.69;13.34;101420.69;6249490;23;20047;-75
2022/05/06 11:00:42;;;;;;;2.72;1.20;;;;;;;40.54;14.46;101422.06;6121981;23;20010;-75
2022/05/06 11:03:27;;;;;;;3.30;1.60;;;;;;;40.80;13.84;101408.63;6215760;23;20408;-75
2022/05/06 11:05:53;;;;;;;2.80;1.42;;;;;;;40.81;14.10;101398.75;6220238;23;20050;-75
2022/05/06 11:08:40;;;;;;;2.05;1.20;;;;;;;42.06;12.86;101389.56;6220867;23;20312;-75
2022/05/06 11:11:20;;;;;;;2.30;1.40;;;;;;;41.94;13.00;101384.63;6250326;23;20015;-74
2022/05/06 11:14:50;;;;;;;;;;;;;;;;;;;;;
2022/05/06 11:17:18;;;;;;;2.83;1.50;;;;;;;40.14;13.48;101388.72;6127003;23;20433;-75
2022/05/06 11:19:51;;;;;;;3.10;1.27;;;;;;;40.70;13.39;101383.13;6154629;23;20043;-76
2022/05/06 11:22:39;;;;;;;3.17;1.60;;;;;;;40.13;13.58;101372.78;6198127;23;20021;-75
2022/05/06 11:25:44;;;;;;;3.05;1.50;;;;;;;40.88;13.81;101412.06;6221273;23;20435;-78
2022/05/06 11:28:35;;;;;;;;;;;;;;;;;;;;;
2022/05/06 11:35:25;;;;;;;2.95;1.60;;;;;;;41.34;12.90;101397.63;6222857;23;20016;-76
2022/05/06 11:37:51;;;;;;;1.33;0.90;;;;;;;42.97;12.58;101387.13;6099786;23;20016;-77
2022/05/06 11:40:33;;;;;;;2.95;1.42;;;;;;;45.55;10.76;101396.50;6172108;23;20008;-74
2022/05/06 11:43:19;;;;;;;3.75;1.60;;;;;;;44.67;10.55;101398.97;6219412;23;20000;-74
2022/05/06 11:48:42;;;;;;;1.52;1.10;;;;;;;43.47;11.82;101390.13;6230080;23;20030;-74
2022/05/06 11:51:11;;;;;;;1.23;1.13;;;;;;;45.04;10.76;101386.63;6220020;23;20076;-75
2022/05/06 11:54:03;;;;;;;2.65;1.00;;;;;;;44.73;10.60;101396.25;6221352;23;19992;-75
2022/05/06 11:56:44;;;;;;;5.10;1.63;;;;;;;42.98;11.01;101388.72;6244928;23;20588;-76
2022/05/06 11:59:30;;;;;;;3.70;1.35;;;;;;;42.12;12.13;101370.47;6223392;23;20004;-76
2022/05/06 12:02:21;;;;;;;2.25;1.40;;;;;;;42.01;12.34;101387.25;6223640;23;20019;-79
2022/05/06 12:04:46;;;;;;;3.53;1.52;;;;;;;42.21;11.97;101373.44;6198312;23;20004;-77
2022/05/06 12:08:03;;;;;;;;;;;;;;;;;;;;;
2022/05/06 12:10:27;;;;;;;1.83;0.95;;;;;;;44.77;11.25;101370.94;6208579;23;20062;-80
2022/05/06 15:17:23;;;;;;;5.00;1.40;;;;;;;20.95;42.80;101265.06;6204478;22;20114;-72
2022/05/06 15:19:51;;;;;;;2.97;1.17;;;;;;;20.76;43.52;101251.34;6248690;23;20016;-74
2022/05/06 15:22:18;;;;;;;7.50;1.38;;;;;;;20.70;43.86;101284.00;6196668;23;20000;-72
2022/05/06 15:24:45;;;;;;;2.45;1.15;;;;;;;20.38;44.33;101277.50;6221719;23;20008;-71
2022/05/06 15:27:11;;;;;;;3.28;1.20;;;;;;;20.30;44.78;101264.34;6220730;23;20008;-71
2022/05/06 15:29:37;;;;;;;1.65;0.90;;;;;;;20.45;44.24;101270.69;6219605;23;20015;-72
2022/05/06 15:32:12;;;;;;;1.50;1.20;;;;;;;20.47;45.52;101276.75;6222071;23;20866;-72
2022/05/06 15:34:40;;;;;;;3.17;1.27;;;;;;;20.48;45.08;101267.28;6249179;23;19996;-73
2022/05/06 15:37:08;;;;;;;5.85;1.13;;;;;;;20.47;45.21;101274.81;6222404;23;20012;-71
2022/05/06 15:40:30;;;;;;;;;;;;;;;;;;;;;
2022/05/06 15:43:38;;;;;;;;;;;;;;;;;;;;;
2022/05/06 15:46:20;;;;;;;3.38;0.95;;;;;;;20.55;44.70;101237.13;6210995;23;20330;-73
2022/05/06 15:48:56;;;;;;;;;;;;;;;;;;;;;
2022/05/06 15:51:25;;;;;;;2.72;1.20;;;;;;;20.30;44.63;101242.13;6123214;23;20094;-71
2022/05/06 15:54:00;;;;;;;2.63;1.30;;;;;;;20.36;45.12;101276.97;6126677;23;20013;-75
2022/05/06 15:56:31;;;;;;;2.53;0.98;;;;;;;20.25;45.43;101275.53;6101422;23;20015;-73
2022/05/06 15:59:06;;;;;;;5.38;3.40;;;;;;;20.07;45.96;101276.50;6102885;23;20010;-78
2022/05/06 16:01:40;;;;;;;1.77;1.20;;;;;;;19.57;46.10;101255.81;6103632;23;20020;-78
2022/05/06 16:04:19;;;;;;;;;;;;;;;;;;;;;
2022/05/06 16:07:07;;;;;;;14.15;3.50;;;;;;;19.39;48.49;101278.88;6250353;23;20034;-76
2022/05/06 16:09:35;;;;;;;5.65;0.73;;;;;;;19.47;48.01;101269.88;6223679;23;20004;-76
2022/05/06 16:12:13;;;;;;;2.60;1.52;;;;;;;19.39;47.61;101257.53;6221839;23;20533;-75
2022/05/06 16:17:31;;;;;;;4.53;0.65;;;;;;;19.48;48.17;101269.56;6247857;22;20095;-74
2022/05/06 16:20:10;;;;;;;1.17;0.50;;;;;;;19.64;47.35;101275.66;6174572;23;20376;-75
2022/05/06 16:22:57;;;;;;;1.45;0.70;;;;;;;20.00;46.40;101249.97;6203551;23;20024;-74
2022/05/06 16:25:33;;;;;;;0.65;0.65;;;;;;;20.18;46.02;101272.38;6221299;23;20003;-75
2022/05/06 16:28:06;;;;;;;0.30;0.30;;;;;;;20.43;45.70;101278.50;6221450;23;20083;-75
2022/05/06 16:31:09;;;;;;;;;;;;;;;;;;;;;
2022/05/06 16:37:20;;;;;;;0.30;0.30;;;;;;;20.42;45.19;101280.47;6218319;23;20447;-76
2022/05/06 16:39:20;;;;;;;;;;;;;;;;;;;;;
2022/05/06 16:42:02;;;;;;;0.93;0.35;;;;;;;19.43;47.35;101257.75;6250084;23;20029;-77
2022/05/06 16:44:50;;;;;;;;;;;;;;;;;;;;;
2022/05/06 16:51:14;;;;;;;0.68;0.40;;;;;;;19.44;48.69;101270.50;6116957;23;20021;-77
2022/05/06 16:53:40;;;;;;;0.63;0.40;;;;;;;19.71;47.54;101256.66;6106001;23;20089;-75
2022/05/06 16:56:30;;;;;;;0.80;0.50;;;;;;;19.78;47.21;101269.28;6104302;23;20009;-76
2022/05/06 16:59:29;;;;;;;0.40;0.40;;;;;;;19.99;46.61;101265.00;6173218;23;20411;-75
2022/05/06 17:02:10;;;;;;;;;;;;;;;;;;;;;
2022/05/06 17:04:54;;;;;;;0.82;0.40;;;;;;;19.95;46.04;101263.97;6250679;23;20035;-75
2022/05/06 17:07:24;;;;;;;2.83;0.40;;;;;;;19.87;46.72;101267.47;6198724;23;20008;-74
2022/05/06 17:20:39;;;;;;;;;;;;;;;;;;;;;
2022/05/06 17:27:35;;;;;;;0.30;0.20;;;;;;;17.30;52.87;101260.09;5893387;24;20042;-77
2022/05/06 17:30:39;;;;;;;;;;;;;;;;;;;;;
2022/05/06 17:39:39;;;;;;;;;;;;;;;;;;;;;
2022/05/06 17:46:12;;;;;;;0.70;0.43;;;;;;;16.48;56.02;101278.91;5961937;24;20084;-79
2022/05/06 17:56:23;;;;;;;;;;;;;;;16.04;57.36;101297.06;5961774;24;20455;-78
2022/05/06 18:01:25;;;;;;;;;;;;;;;;;;;;;
2022/05/06 18:06:00;;;;;;;;;;;;;;;;;;;;;
2022/05/06 18:08:38;;;;;;;;;;;;;;;;;;;;;
2022/05/06 18:12:03;;;;;;;4.50;0.50;;;;;;;15.38;58.36;101278.72;5878830;24;20033;-78
2022/05/06 18:19:05;;;;;;;1.30;0.50;;;;;;;14.87;59.19;101245.72;5836005;24;20085;-77
2022/05/06 18:26:04;;;;;;;0.43;0.30;;;;;;;15.06;59.21;101281.78;5918769;24;20020;-81
2022/05/06 18:35:28;;;;;;;1.15;0.47;;;;;;;15.06;59.57;101277.09;6047774;23;20102;-78
2022/05/06 18:38:15;;;;;;;0.68;0.50;;;;;;;15.11;59.85;101279.88;6046205;23;20031;-78
2022/05/06 18:40:55;;;;;;;1.08;0.43;;;;;;;15.01;60.06;101272.41;6068586;23;20003;-77
2022/05/06 18:46:47;;;;;;;0.32;0.30;;;;;;;14.96;60.77;101277.09;6035382;23;20050;-78
2022/05/06 18:53:23;;;;;;;0.70;0.30;;;;;;;14.96;60.70;101285.34;6076628;23;20095;-77
2022/05/06 19:03:26;;;;;;;1.08;0.40;;;;;;;14.81;61.80;101303.50;6051280;23;20089;-76
2022/05/06 19:06:03;;;;;;;0.35;0.30;;;;;;;14.75;62.21;101295.53;6026146;23;20007;-78
2022/05/06 19:08:29;;;;;;;1.10;0.50;;;;;;;14.62;62.50;101294.13;6020819;23;20012;-76
2022/05/06 19:11:36;;;;;;;;;;;;;;;;;;;;;
2022/05/06 19:14:11;;;;;;;2.03;0.57;;;;;;;14.49;62.52;101301.75;6128993;23;20029;-74
2022/05/06 19:17:15;;;;;;;2.30;0.57;;;;;;;14.32;62.45;101284.66;6109646;23;20010;-78
2022/05/06 19:19:49;;;;;;;0.98;0.35;;;;;;;14.26;63.29;101271.97;6107245;23;20239;-76
2022/05/06 19:25:23;;;;;;;2.70;0.40;;;;;;;14.23;64.35;101303.59;6134009;23;20106;-77
2022/05/06 19:27:49;;;;;;;0.80;0.30;;;;;;;13.89;64.75;101264.69;6110735;23;20013;-75
2022/05/06 19:30:17;;;;;;;2.03;0.50;;;;;;;13.92;64.91;101281.47;6203890;23;20513;-76
2022/05/06 19:33:04;;;;;;;0.47;0.40;;;;;;;13.84;65.31;101270.16;6256848;23;20015;-77
2022/05/06 19:35:39;;;;;;;1.52;0.40;;;;;;;14.02;65.56;101307.34;6253429;23;20000;-75
2022/05/06 19:38:23;;;;;;;2.28;0.57;;;;;;;13.87;64.97;101294.34;6255688;23;20035;-76
2022/05/06 19:41:04;;;;;;;0.40;0.30;;;;;;;13.88;65.41;101301.53;6229465;23;20028;-77
2022/05/06 19:43:34;;;;;;;1.23;0.47;;;;;;;13.94;65.31;101312.28;6254508;23;20075;-74
2022/05/06 19:46:13;;;;;;;0.75;0.30;;;;;;;13.78;64.98;101275.66;6254637;23;20326;-75
2022/05/06 19:48:51;;;;;;;;;;;;;;;;;;;;;
2022/05/06 22:31:42;;;;;;;;;;;;;;;;;;;;;
2022/05/06 22:34:31;;;;;;;2.38;0.98;;;;;;;13.49;71.66;101249.63;6223387;23;20039;-73
2022/05/06 22:40:25;;;;;;;2.00;0.90;;;;;;;13.60;72.39;101279.66;6071092;23;20011;-74
2022/05/06 22:46:16;;;;;;;1.92;0.70;;;;;;;13.59;71.61;101255.19;6073091;23;20022;-72
2022/05/06 22:48:42;;;;;;;1.75;1.00;;;;;;;13.69;71.87;101270.91;6072497;23;20007;-71
2022/05/06 22:51:13;;;;;;;1.13;1.00;;;;;;;13.61;72.48;101253.00;6125689;23;20019;-73
2022/05/06 22:54:05;;;;;;;1.52;0.93;;;;;;;13.67;72.55;101268.44;6170469;23;20027;-74
2022/05/06 22:56:46;;;;;;;2.72;1.20;;;;;;;13.53;73.23;101245.25;6166630;23;20062;-76
2022/05/06 23:06:54;;;;;;;3.47;1.00;;;;;;;13.53;73.58;101261.75;6134020;23;20010;-74
2022/05/06 23:09:19;;;;;;;2.08;1.02;;;;;;;13.48;74.60;101261.69;6188511;23;20049;-74
2022/05/06 23:11:45;;;;;;;1.73;0.95;;;;;;;13.24;74.85;101226.34;6226093;23;20000;-72
2022/05/06 23:15:00;;;;;;;1.00;0.90;;;;;;;13.19;75.44;101229.09;6222159;23;20060;-72
2022/05/06 23:17:39;;;;;;;;;;;;;;;;;;;;;
2022/05/06 23:20:45;;;;;;;1.73;1.20;;;;;;;13.35;75.62;101257.53;6230482;23;20024;-73
2022/05/06 23:30:05;;;;;;;1.25;0.82;;;;;;;13.07;75.96;101221.84;6104471;23;20074;-75
2022/05/06 23:32:34;;;;;;;2.78;1.02;;;;;;;13.24;76.78;101254.66;6114973;23;20018;-73
2022/05/06 23:38:41;;;;;;;1.70;0.90;;;;;;;13.16;76.98;101240.59;6020320;23;20055;-71
2022/05/06 23:41:15;;;;;;;4.28;0.80;;;;;;;13.23;76.72;101247.50;6130187;23;20076;-73
2022/05/06 23:44:14;;;;;;;;;;;;;;;;;;;;;
2022/05/06 23:47:50;;;;;;;;;;;;;;;;;;;;;
2022/05/06 23:50:21;;;;;;;5.03;1.88;;;;;;;13.19;77.85;101248.31;6110611;23;20091;-72
2022/05/06 23:52:46;;;;;;;1.70;0.93;;;;;;;13.08;78.96;101240.00;6094742;22;20041;-72
2022/05/06 23:55:19;;;;;;;3.03;1.60;;;;;;;12.97;79.21;101235.50;6221883;23;20461;-72
2022/05/06 23:57:47;;;;;;;3.55;1.40;;;;;;;12.92;79.84;101235.44;6248950;23;20499;-72
